createdAt,value
2023-11-30T00:03:49.287Z,10.60
2023-11-30T00:09:53.059Z,11.40
2023-11-30T00:12:54.933Z,12.10
2023-11-30T00:15:56.826Z,12.00
2023-11-30T00:18:58.711Z,12.90
2023-11-30T00:22:00.692Z,12.00
2023-11-30T00:28:04.756Z,8.60
2023-11-30T00:34:08.565Z,11.20
2023-11-30T00:37:11.806Z,11.50
2023-11-30T00:40:13.828Z,11.70
2023-11-30T00:43:15.830Z,11.70
2023-11-30T00:46:17.850Z,10.60
2023-11-30T00:52:21.728Z,10.10
2023-11-30T00:55:23.642Z,10.60
2023-11-30T00:58:25.640Z,11.40
2023-11-30T01:01:27.574Z,10.80
2023-11-30T01:04:29.577Z,11.00
2023-11-30T01:07:31.432Z,10.50
2023-11-30T01:10:33.468Z,11.70
2023-11-30T01:13:35.603Z,11.20
2023-11-30T01:16:37.498Z,11.40
2023-11-30T01:19:39.347Z,11.50
2023-11-30T01:22:41.162Z,11.60
2023-11-30T01:25:42.851Z,11.60
2023-11-30T01:28:44.650Z,11.50
2023-11-30T01:31:46.454Z,11.50
2023-11-30T01:34:48.510Z,11.10
2023-11-30T01:37:50.262Z,11.70
2023-11-30T01:40:51.972Z,11.70
2023-11-30T01:43:53.685Z,11.90
2023-11-30T01:46:55.508Z,11.70
2023-11-30T01:49:57.552Z,11.30
2023-11-30T01:52:59.306Z,11.00
2023-11-30T01:56:01.142Z,11.20
2023-11-30T01:59:03.372Z,10.90
2023-11-30T02:02:05.377Z,11.30
2023-11-30T02:05:07.415Z,12.20
2023-11-30T02:08:09.184Z,12.50
2023-11-30T02:11:11.124Z,12.60
2023-11-30T02:14:12.874Z,12.30
2023-11-30T02:17:14.578Z,12.20
2023-11-30T02:20:17.005Z,13.70
2023-11-30T02:23:18.705Z,13.10
2023-11-30T02:26:20.495Z,14.10
2023-11-30T02:29:22.224Z,12.00
2023-11-30T02:32:24.139Z,12.90
2023-11-30T02:35:25.856Z,12.50
2023-11-30T02:38:27.538Z,12.90
2023-11-30T02:41:29.354Z,12.80
2023-11-30T02:44:31.050Z,13.30
2023-11-30T02:47:32.797Z,12.60
2023-11-30T02:50:34.489Z,14.00
2023-11-30T02:53:36.197Z,13.30
2023-11-30T02:56:41.423Z,13.80
2023-11-30T02:59:43.150Z,13.50
2023-11-30T03:05:47.204Z,12.50
2023-11-30T03:08:48.883Z,13.60
2023-11-30T03:11:50.558Z,14.40
2023-11-30T03:14:52.377Z,9.60
2023-11-30T03:17:54.219Z,12.90
2023-11-30T03:20:56.010Z,14.10
2023-11-30T03:23:58.097Z,14.10
2023-11-30T03:26:59.842Z,13.90
2023-11-30T03:30:02.056Z,14.00
2023-11-30T03:36:06.243Z,12.00
2023-11-30T03:42:10.840Z,13.70
2023-11-30T03:45:12.523Z,13.70
2023-11-30T03:48:14.327Z,14.60
2023-11-30T03:51:16.135Z,14.50
2023-11-30T03:54:17.956Z,14.00
2023-11-30T03:57:19.796Z,14.70
2023-11-30T04:00:21.591Z,15.00
2023-11-30T04:03:23.297Z,16.20
2023-11-30T04:06:25.330Z,15.80
2023-11-30T04:09:27.054Z,11.50
2023-11-30T04:15:31.231Z,15.00
2023-11-30T04:18:33.320Z,15.00
2023-11-30T04:21:35.153Z,15.50
2023-11-30T04:24:36.950Z,15.30
2023-11-30T04:27:39.375Z,14.30
2023-11-30T04:30:41.384Z,15.10
2023-11-30T04:36:45.337Z,13.60
2023-11-30T04:42:50.323Z,13.90
2023-11-30T04:45:52.025Z,15.00
2023-11-30T04:48:54.935Z,11.70
2023-11-30T04:51:56.642Z,15.70
2023-11-30T04:54:58.381Z,12.80
2023-11-30T04:58:00.102Z,16.60
2023-11-30T05:01:01.813Z,16.60
2023-11-30T05:04:04.221Z,17.10
2023-11-30T05:07:06.068Z,16.00
2023-11-30T05:10:07.943Z,16.70
2023-11-30T05:13:09.670Z,16.30
2023-11-30T05:16:11.501Z,15.70
2023-11-30T05:19:13.178Z,16.40
2023-11-30T05:22:14.835Z,16.60
2023-11-30T05:25:16.493Z,16.80
2023-11-30T05:28:18.165Z,15.60
2023-11-30T05:31:19.879Z,15.60
2023-11-30T05:34:21.560Z,17.10
2023-11-30T05:37:23.233Z,17.10
2023-11-30T05:40:25.297Z,15.20
2023-11-30T05:43:27.002Z,15.00
2023-11-30T05:46:28.727Z,15.00
2023-11-30T05:49:30.515Z,14.90
2023-11-30T05:52:32.251Z,15.00
2023-11-30T05:55:34.000Z,13.60
2023-11-30T05:58:36.536Z,14.20
2023-11-30T06:01:38.574Z,13.50
2023-11-30T06:04:52.609Z,13.40
2023-11-30T06:07:54.428Z,12.80
2023-11-30T06:10:56.084Z,13.60
2023-11-30T06:13:57.967Z,12.60
2023-11-30T06:16:59.670Z,13.30
2023-11-30T06:20:03.921Z,13.00
2023-11-30T06:23:07.786Z,13.20
2023-11-30T06:26:09.531Z,14.20
2023-11-30T06:29:16.339Z,13.40
2023-11-30T06:32:18.053Z,14.40
2023-11-30T06:35:20.531Z,10.00
2023-11-30T06:38:22.241Z,14.80
2023-11-30T06:41:23.992Z,10.90
2023-11-30T06:44:26.414Z,14.70
2023-11-30T06:47:28.159Z,15.10
2023-11-30T06:50:29.845Z,14.40
2023-11-30T06:53:31.530Z,15.70
2023-11-30T06:56:33.396Z,15.10
2023-11-30T06:59:35.233Z,15.90
2023-11-30T07:02:37.228Z,12.90
2023-11-30T07:05:38.906Z,15.60
2023-11-30T07:08:40.722Z,14.90
2023-11-30T07:11:43.100Z,11.70
2023-11-30T07:14:50.959Z,13.50
2023-11-30T07:17:53.605Z,13.70
2023-11-30T07:20:57.357Z,14.80
2023-11-30T07:24:00.242Z,14.40
2023-11-30T07:27:02.043Z,14.10
2023-11-30T07:30:08.321Z,14.10
2023-11-30T07:33:10.351Z,14.20
2023-11-30T07:36:14.085Z,14.10
2023-11-30T07:39:16.121Z,15.70
2023-11-30T07:42:28.862Z,14.30
2023-11-30T07:45:34.931Z,14.10
2023-11-30T07:48:37.017Z,14.70
2023-11-30T07:51:38.752Z,14.60
2023-11-30T07:54:41.209Z,13.70
2023-11-30T07:57:43.079Z,15.00
2023-11-30T08:00:44.837Z,14.50
2023-11-30T08:03:47.638Z,14.10
2023-11-30T08:06:49.824Z,13.50
2023-11-30T08:09:56.326Z,13.40
2023-11-30T08:13:05.392Z,13.30
2023-11-30T08:16:09.878Z,13.70
2023-11-30T08:19:14.566Z,13.60
2023-11-30T08:22:16.475Z,14.00
2023-11-30T08:25:18.252Z,12.70
2023-11-30T08:28:20.918Z,9.40
2023-11-30T08:31:22.713Z,12.90
2023-11-30T08:34:24.521Z,13.70
2023-11-30T08:37:26.323Z,11.90
2023-11-30T08:40:28.236Z,12.80
2023-11-30T08:43:30.452Z,11.60
2023-11-30T08:49:33.918Z,11.20
2023-11-30T08:52:36.004Z,13.60
2023-11-30T08:58:39.441Z,13.10
2023-11-30T09:01:41.281Z,12.80
2023-11-30T09:04:43.192Z,13.30
2023-11-30T09:07:45.048Z,13.10
2023-11-30T09:10:47.638Z,14.60
2023-11-30T09:13:49.444Z,15.10
2023-11-30T09:16:51.247Z,14.80
2023-11-30T09:19:53.084Z,13.30
2023-11-30T09:22:54.883Z,12.80
2023-11-30T09:25:57.181Z,12.40
2023-11-30T09:28:59.126Z,14.30
2023-11-30T09:32:01.099Z,12.20
2023-11-30T09:35:04.477Z,12.10
2023-11-30T09:38:06.194Z,12.30
2023-11-30T09:41:14.125Z,8.70
2023-11-30T09:44:16.098Z,13.00
2023-11-30T09:47:18.297Z,13.20
2023-11-30T09:53:22.163Z,15.00
2023-11-30T09:56:28.932Z,14.50
2023-11-30T09:59:31.136Z,12.90
2023-11-30T10:05:34.998Z,10.40
2023-11-30T10:08:36.766Z,11.10
2023-11-30T10:11:39.120Z,11.70
2023-11-30T10:14:40.913Z,10.90
2023-11-30T10:17:47.084Z,11.40
2023-11-30T10:20:49.903Z,10.90
2023-11-30T10:23:52.200Z,10.10
2023-11-30T10:26:59.748Z,10.60
2023-11-30T10:30:04.825Z,11.00
2023-11-30T10:33:13.667Z,10.80
2023-11-30T10:36:18.971Z,9.50
2023-11-30T10:39:24.208Z,9.60
2023-11-30T10:42:27.607Z,8.60
2023-11-30T10:45:36.466Z,9.50
2023-11-30T10:48:39.665Z,9.20
2023-11-30T10:51:42.610Z,10.20
2023-11-30T10:54:55.297Z,8.90
2023-11-30T10:57:58.565Z,8.70
2023-11-30T11:01:01.077Z,8.10
2023-11-30T11:04:07.549Z,8.50
2023-11-30T11:07:15.618Z,9.30
2023-11-30T11:10:32.173Z,8.60
2023-11-30T11:13:35.327Z,8.80
2023-11-30T11:16:44.813Z,9.20
2023-11-30T11:19:47.270Z,9.30
2023-11-30T11:23:13.826Z,9.70
2023-11-30T11:26:16.103Z,8.20
2023-11-30T11:29:24.335Z,8.20
2023-11-30T11:32:35.167Z,7.80
2023-11-30T11:35:37.197Z,8.40
2023-11-30T11:38:39.129Z,8.80
2023-11-30T11:41:41.058Z,9.90
2023-11-30T11:44:42.870Z,10.00
2023-11-30T11:47:44.997Z,9.30
2023-11-30T11:50:56.951Z,10.40
2023-11-30T11:53:59.006Z,9.20
2023-11-30T11:57:02.201Z,8.70
2023-11-30T12:00:10.574Z,9.30
2023-11-30T12:03:12.630Z,11.90
2023-11-30T12:06:14.954Z,10.40
2023-11-30T12:09:16.832Z,8.20
2023-11-30T12:12:18.649Z,7.70
2023-11-30T12:15:20.447Z,8.30
2023-11-30T12:18:22.498Z,9.30
2023-11-30T12:21:25.064Z,8.80
2023-11-30T12:24:26.887Z,8.10
2023-11-30T12:27:29.662Z,9.70
2023-11-30T12:30:31.868Z,9.80
2023-11-30T12:33:33.731Z,9.40
2023-11-30T12:36:35.652Z,8.50
2023-11-30T12:39:38.017Z,9.20
2023-11-30T12:42:42.307Z,9.30
2023-11-30T12:45:44.402Z,10.20
2023-11-30T12:48:46.568Z,8.90
2023-11-30T12:51:49.391Z,8.40
2023-11-30T12:54:52.342Z,8.70
2023-11-30T12:57:54.328Z,8.80
2023-11-30T13:00:56.226Z,9.10
2023-11-30T13:03:59.288Z,6.40
2023-11-30T13:07:01.300Z,10.20
2023-11-30T13:10:03.285Z,10.70
2023-11-30T13:13:06.148Z,10.10
2023-11-30T13:16:08.408Z,9.30
2023-11-30T13:19:10.391Z,9.90
2023-11-30T13:22:12.233Z,10.00
2023-11-30T13:25:14.699Z,8.50
2023-11-30T13:28:16.795Z,10.80
2023-11-30T13:31:18.801Z,12.50
2023-11-30T13:34:20.556Z,12.20
2023-11-30T13:37:22.616Z,11.70
2023-11-30T13:40:25.467Z,11.30
2023-11-30T13:43:27.329Z,12.20
2023-11-30T13:46:29.087Z,13.50
2023-11-30T13:49:31.173Z,15.10
2023-11-30T13:52:32.961Z,13.10
2023-11-30T13:55:34.784Z,12.50
2023-11-30T13:58:36.594Z,12.10
2023-11-30T14:01:38.752Z,13.80
2023-11-30T14:04:40.626Z,12.90
2023-11-30T14:07:43.033Z,14.00
2023-11-30T14:10:44.873Z,15.20
2023-11-30T14:13:46.602Z,16.20
2023-11-30T14:16:48.987Z,15.20
2023-11-30T14:19:51.451Z,15.20
2023-11-30T14:22:53.941Z,14.20
2023-11-30T14:25:57.175Z,16.90
2023-11-30T14:32:06.937Z,15.50
2023-11-30T14:35:10.257Z,17.80
2023-11-30T14:38:12.658Z,15.00
2023-11-30T14:41:16.796Z,14.30
2023-11-30T14:44:18.759Z,14.40
2023-11-30T14:47:25.925Z,14.60
2023-11-30T14:50:27.728Z,15.20
2023-11-30T14:53:29.937Z,15.60
2023-11-30T14:59:33.981Z,15.10
2023-11-30T15:02:35.880Z,18.60
2023-11-30T15:05:38.112Z,21.20
2023-11-30T15:11:43.715Z,31.40
2023-11-30T15:14:45.559Z,29.80
2023-11-30T15:17:49.930Z,29.70
2023-11-30T15:20:51.697Z,28.00
2023-11-30T15:23:53.516Z,19.60
2023-11-30T15:26:56.624Z,23.30
2023-11-30T15:29:59.726Z,21.60
2023-11-30T15:33:01.465Z,21.40
2023-11-30T15:36:05.530Z,23.10
2023-11-30T15:39:16.194Z,25.60
2023-11-30T15:42:17.961Z,26.20
2023-11-30T15:45:23.604Z,19.80
2023-11-30T15:48:25.562Z,24.10
2023-11-30T15:51:27.318Z,23.60
2023-11-30T15:54:28.953Z,26.40
2023-11-30T15:57:30.702Z,28.10
2023-11-30T16:00:33.161Z,30.40
2023-11-30T16:03:35.004Z,30.20
2023-11-30T16:06:37.056Z,30.60
2023-11-30T16:12:40.626Z,30.00
2023-11-30T16:15:42.440Z,33.20
2023-11-30T16:18:44.397Z,35.20
2023-11-30T16:21:46.290Z,34.90
2023-11-30T16:24:48.179Z,33.50
2023-11-30T16:27:49.987Z,35.10
2023-11-30T16:30:51.720Z,39.60
2023-11-30T16:33:53.847Z,38.00
2023-11-30T16:39:58.170Z,36.90
2023-11-30T16:43:00.527Z,40.40
2023-11-30T16:46:03.172Z,34.70
2023-11-30T16:49:05.581Z,30.60
2023-11-30T16:52:08.570Z,28.50
2023-11-30T16:55:12.723Z,27.90
2023-11-30T16:58:14.556Z,27.90
2023-11-30T17:01:46.185Z,30.70
2023-11-30T17:04:48.027Z,30.60
2023-11-30T17:07:50.073Z,25.70
2023-11-30T17:10:53.039Z,27.00
2023-11-30T17:13:54.856Z,27.30
2023-11-30T17:16:56.807Z,26.50
2023-11-30T17:19:58.994Z,25.70
2023-11-30T17:23:00.790Z,25.50
2023-11-30T17:26:02.964Z,27.00
2023-11-30T17:32:07.351Z,22.80
2023-11-30T17:35:09.665Z,25.20
2023-11-30T17:41:13.356Z,26.70
2023-11-30T17:44:15.171Z,28.90
2023-11-30T17:47:17.012Z,27.80
2023-11-30T17:50:18.962Z,28.90
2023-11-30T17:53:20.877Z,29.90
2023-11-30T17:56:22.737Z,26.50
2023-11-30T17:59:27.254Z,27.30
2023-11-30T18:02:29.150Z,30.10
2023-11-30T18:05:30.980Z,36.10
2023-11-30T18:08:33.281Z,34.90
2023-11-30T18:11:35.614Z,38.00
2023-11-30T18:14:38.273Z,40.40
2023-11-30T18:17:40.260Z,41.70
2023-11-30T18:20:41.964Z,41.90
2023-11-30T18:23:44.414Z,39.70
2023-11-30T18:26:48.368Z,40.10
2023-11-30T18:29:50.238Z,41.30
2023-11-30T18:32:52.014Z,43.00
2023-11-30T18:35:53.661Z,41.90
2023-11-30T18:38:55.442Z,43.30
2023-11-30T18:41:57.249Z,36.40
2023-11-30T18:44:58.978Z,45.30
2023-11-30T18:48:00.822Z,49.20
2023-11-30T18:51:03.113Z,48.60
2023-11-30T18:57:07.076Z,41.90
2023-11-30T19:00:09.878Z,46.30
2023-11-30T19:03:11.740Z,44.40
2023-11-30T19:06:15.919Z,46.10
2023-11-30T19:09:18.223Z,49.00
2023-11-30T19:15:25.168Z,48.40
2023-11-30T19:18:30.549Z,54.30
2023-11-30T19:21:32.556Z,56.20
2023-11-30T19:24:34.517Z,54.30
2023-11-30T19:27:36.339Z,51.40
2023-11-30T19:30:38.169Z,53.00
2023-11-30T19:33:40.275Z,54.30
2023-11-30T19:36:42.437Z,53.80
2023-11-30T19:42:46.184Z,53.20
2023-11-30T19:45:47.994Z,59.20
2023-11-30T19:48:49.917Z,68.50
2023-11-30T19:51:52.501Z,81.10
2023-11-30T19:54:54.395Z,86.00
2023-11-30T19:57:56.176Z,88.50
2023-11-30T20:00:57.954Z,81.10
2023-11-30T20:03:59.964Z,81.20
2023-11-30T20:10:04.121Z,75.40
2023-11-30T20:13:05.824Z,76.20
2023-11-30T20:16:11.169Z,60.70
2023-11-30T20:19:12.927Z,88.10
2023-11-30T20:22:14.814Z,90.10
2023-11-30T20:25:17.381Z,96.90
2023-11-30T20:28:19.387Z,96.50
2023-11-30T20:31:21.163Z,103.90
2023-11-30T20:34:23.239Z,106.00
2023-11-30T20:37:25.432Z,107.70
2023-11-30T20:43:29.172Z,104.90
2023-11-30T20:49:32.517Z,78.20
2023-11-30T20:52:34.714Z,113.10
2023-11-30T20:55:36.750Z,117.10
2023-11-30T20:58:39.460Z,110.40
2023-11-30T21:01:41.633Z,109.70
2023-11-30T21:04:43.515Z,110.80
2023-11-30T21:07:45.604Z,113.30
2023-11-30T21:10:47.440Z,113.40
2023-11-30T21:13:49.152Z,122.40
2023-11-30T21:16:51.257Z,136.50
2023-11-30T21:22:57.460Z,125.60
2023-11-30T21:26:09.994Z,136.70
2023-11-30T21:29:12.553Z,144.30
2023-11-30T21:32:14.714Z,129.00
2023-11-30T21:38:18.570Z,132.60
2023-11-30T21:41:20.929Z,132.20
2023-11-30T21:44:22.776Z,147.90
2023-11-30T21:47:24.502Z,156.70
2023-11-30T21:50:27.159Z,140.50
2023-11-30T21:53:32.624Z,140.60
2023-11-30T21:56:34.425Z,148.50
2023-11-30T21:59:37.258Z,122.80
2023-11-30T22:02:40.621Z,152.00
2023-11-30T22:05:42.728Z,161.20
2023-11-30T22:08:45.912Z,163.40
2023-11-30T22:11:47.574Z,154.90
2023-11-30T22:14:49.275Z,121.00
2023-11-30T22:17:51.116Z,117.20
2023-11-30T22:20:53.137Z,154.80
2023-11-30T22:23:55.472Z,151.50
2023-11-30T22:26:57.223Z,159.90
2023-11-30T22:29:58.898Z,146.20
2023-11-30T22:33:00.653Z,149.10
2023-11-30T22:36:02.410Z,153.70
2023-11-30T22:39:04.159Z,156.80
2023-11-30T22:42:06.440Z,167.60
2023-11-30T22:48:10.054Z,159.70
2023-11-30T22:51:12.834Z,168.10
2023-11-30T22:54:14.802Z,170.10
2023-11-30T22:57:17.306Z,163.40
2023-11-30T23:00:24.162Z,167.50
2023-11-30T23:03:26.159Z,167.60
2023-11-30T23:06:28.146Z,154.20
2023-11-30T23:09:29.981Z,155.30
2023-11-30T23:12:31.856Z,143.30
2023-11-30T23:15:33.606Z,153.90
2023-11-30T23:18:35.582Z,154.40
2023-11-30T23:21:37.532Z,152.30
2023-11-30T23:24:42.211Z,140.90
2023-11-30T23:27:44.015Z,141.20
2023-11-30T23:30:45.745Z,101.00
2023-11-30T23:33:47.669Z,127.00
2023-11-30T23:36:49.390Z,123.70
2023-11-30T23:39:51.401Z,123.40
2023-11-30T23:42:53.487Z,119.70
2023-11-30T23:45:55.196Z,118.40
2023-11-30T23:48:57.755Z,121.00
2023-11-30T23:51:59.411Z,119.20
2023-11-30T23:55:01.756Z,95.40
2023-11-30T23:58:03.642Z,119.70
